Pickle Lake Airport

CYPL | YPL

Pickle Lake , Ontario , Canada

Wednesday, October 23rd, 2019 | 23:58

Weather

CYPL 240456Z AUTO 31009G19KT 280V350 3SM -SN SCT018 OVC025 M02/M03 A2988 RMK SLP143

Charts

No Charts Available

Gates

No Gates Available

Runways

1 Available

Events

No events for this airport


New event